イルクーツク の空港の天気 - METARとTAF

イルクーツク国際空港 ( UIII / IKT ) - ロシア イルクーツク
飛行場実況気象(Metar)
観測時間12/14 14:00 IRKT (12/14 06:00 UTC)
風向・風速南南東 2m/s
視程10km以上
天気現象
なし
気温-13℃
湿度85%
気圧1021hPa
METARUIII 140600Z 16002MPS CAVOK M13/M15 Q1021 R12/490250 NOSIG RMK QFE723/0964
過去の天気等 Google飛行場航空写真 Wunderground天気予報

過去48時間のMETAR

飛行場予報(TAF)
発表時間: 12/14 13:00 IRKT (12/14 05:00 UTC)
予報対象時間: 14日14時 IRKT ~ 15日14時 IRKT
風向・風速不定 1m/s
視程10km以上
全天の4割程度の雲 雲底高度 460m
14日14時 IRKT ~ 14日20時 IRKT に一時的に
視程2900m
天気現象
TAF UIII 140500Z 1406/1506 VRB01MPS 9999 SCT015
TEMPO 1406/1412 2900 FU